sensor_id;sensor_type;location;lat;lon;timestamp;P1;durP1;ratioP1;P2;durP2;ratioP2
66669;SDS011;53568;52.164;4.472;2023-03-03T00:00:44;15.02;;;14.67;;
66669;SDS011;53568;52.164;4.472;2023-03-03T00:03:11;14.99;;;14.56;;
66669;SDS011;53568;52.164;4.472;2023-03-03T00:05:41;15.25;;;14.75;;
66669;SDS011;53568;52.164;4.472;2023-03-03T00:08:07;14.60;;;14.10;;
66669;SDS011;53568;52.164;4.472;2023-03-03T00:10:34;14.03;;;13.73;;
66669;SDS011;53568;52.164;4.472;2023-03-03T00:13:00;13.18;;;12.85;;
66669;SDS011;53568;52.164;4.472;2023-03-03T00:15:26;13.39;;;13.11;;
66669;SDS011;53568;52.164;4.472;2023-03-03T00:17:53;13.11;;;12.75;;
66669;SDS011;53568;52.164;4.472;2023-03-03T00:23:07;12.80;;;12.61;;
66669;SDS011;53568;52.164;4.472;2023-03-03T00:25:38;12.76;;;12.57;;
66669;SDS011;53568;52.164;4.472;2023-03-03T00:30:46;12.29;;;12.03;;
66669;SDS011;53568;52.164;4.472;2023-03-03T00:36:09;11.99;;;11.88;;
66669;SDS011;53568;52.164;4.472;2023-03-03T00:38:52;12.32;;;12.23;;
66669;SDS011;53568;52.164;4.472;2023-03-03T00:41:22;12.28;;;12.09;;
66669;SDS011;53568;52.164;4.472;2023-03-03T00:43:50;11.63;;;11.43;;
66669;SDS011;53568;52.164;4.472;2023-03-03T00:46:17;11.55;;;11.32;;
66669;SDS011;53568;52.164;4.472;2023-03-03T00:48:48;11.80;;;11.50;;
66669;SDS011;53568;52.164;4.472;2023-03-03T00:53:46;11.49;;;11.38;;
66669;SDS011;53568;52.164;4.472;2023-03-03T00:56:12;11.34;;;11.24;;
66669;SDS011;53568;52.164;4.472;2023-03-03T00:58:38;11.45;;;11.33;;
66669;SDS011;53568;52.164;4.472;2023-03-03T01:01:03;11.41;;;11.33;;
66669;SDS011;53568;52.164;4.472;2023-03-03T01:03:29;11.65;;;11.57;;
66669;SDS011;53568;52.164;4.472;2023-03-03T01:05:54;11.33;;;11.24;;
66669;SDS011;53568;52.164;4.472;2023-03-03T01:08:20;11.65;;;11.52;;
66669;SDS011;53568;52.164;4.472;2023-03-03T01:10:50;12.12;;;11.91;;
66669;SDS011;53568;52.164;4.472;2023-03-03T01:13:19;12.53;;;12.30;;
66669;SDS011;53568;52.164;4.472;2023-03-03T01:15:48;12.64;;;12.33;;
66669;SDS011;53568;52.164;4.472;2023-03-03T01:18:14;12.59;;;12.26;;
66669;SDS011;53568;52.164;4.472;2023-03-03T01:20:40;12.49;;;12.29;;
66669;SDS011;53568;52.164;4.472;2023-03-03T01:23:06;12.80;;;12.58;;
66669;SDS011;53568;52.164;4.472;2023-03-03T01:25:32;12.89;;;12.67;;
66669;SDS011;53568;52.164;4.472;2023-03-03T01:27:58;13.03;;;12.79;;
66669;SDS011;53568;52.164;4.472;2023-03-03T01:30:24;13.54;;;13.26;;
66669;SDS011;53568;52.164;4.472;2023-03-03T01:32:50;13.03;;;12.83;;
66669;SDS011;53568;52.164;4.472;2023-03-03T01:35:16;13.45;;;13.32;;
66669;SDS011;53568;52.164;4.472;2023-03-03T01:37:42;13.62;;;13.35;;
66669;SDS011;53568;52.164;4.472;2023-03-03T01:40:11;14.09;;;13.74;;
66669;SDS011;53568;52.164;4.472;2023-03-03T01:42:42;14.09;;;13.77;;
66669;SDS011;53568;52.164;4.472;2023-03-03T01:45:09;14.03;;;13.62;;
66669;SDS011;53568;52.164;4.472;2023-03-03T01:47:50;13.54;;;13.27;;
66669;SDS011;53568;52.164;4.472;2023-03-03T01:53:30;13.77;;;13.56;;
66669;SDS011;53568;52.164;4.472;2023-03-03T01:56:01;13.04;;;12.80;;
66669;SDS011;53568;52.164;4.472;2023-03-03T01:58:31;13.18;;;12.88;;
66669;SDS011;53568;52.164;4.472;2023-03-03T02:01:03;13.04;;;12.80;;
66669;SDS011;53568;52.164;4.472;2023-03-03T02:03:33;12.89;;;12.58;;
66669;SDS011;53568;52.164;4.472;2023-03-03T02:06:02;13.20;;;12.89;;
66669;SDS011;53568;52.164;4.472;2023-03-03T02:08:39;12.64;;;12.39;;
66669;SDS011;53568;52.164;4.472;2023-03-03T02:11:24;12.29;;;12.03;;
66669;SDS011;53568;52.164;4.472;2023-03-03T02:13:51;11.59;;;11.46;;
66669;SDS011;53568;52.164;4.472;2023-03-03T02:16:17;11.90;;;11.67;;
66669;SDS011;53568;52.164;4.472;2023-03-03T02:18:43;11.67;;;11.44;;
66669;SDS011;53568;52.164;4.472;2023-03-03T02:21:11;11.67;;;11.48;;
66669;SDS011;53568;52.164;4.472;2023-03-03T02:26:38;11.00;;;10.81;;
66669;SDS011;53568;52.164;4.472;2023-03-03T02:29:06;11.75;;;11.45;;
66669;SDS011;53568;52.164;4.472;2023-03-03T02:31:33;11.41;;;11.04;;
66669;SDS011;53568;52.164;4.472;2023-03-03T02:33:58;11.06;;;10.82;;
66669;SDS011;53568;52.164;4.472;2023-03-03T02:36:28;10.71;;;10.47;;
66669;SDS011;53568;52.164;4.472;2023-03-03T02:41:53;10.54;;;10.23;;
66669;SDS011;53568;52.164;4.472;2023-03-03T02:44:32;10.65;;;10.42;;
66669;SDS011;53568;52.164;4.472;2023-03-03T02:46:59;10.33;;;10.06;;
66669;SDS011;53568;52.164;4.472;2023-03-03T02:49:25;10.22;;;10.05;;
66669;SDS011;53568;52.164;4.472;2023-03-03T02:51:54;9.77;;;9.71;;
66669;SDS011;53568;52.164;4.472;2023-03-03T02:54:21;9.34;;;9.23;;
66669;SDS011;53568;52.164;4.472;2023-03-03T02:56:48;9.52;;;9.42;;
66669;SDS011;53568;52.164;4.472;2023-03-03T02:59:14;9.38;;;9.23;;
66669;SDS011;53568;52.164;4.472;2023-03-03T03:01:41;9.31;;;9.16;;
66669;SDS011;53568;52.164;4.472;2023-03-03T03:04:08;9.74;;;9.56;;
66669;SDS011;53568;52.164;4.472;2023-03-03T03:06:39;9.10;;;8.91;;
66669;SDS011;53568;52.164;4.472;2023-03-03T03:09:06;8.66;;;8.54;;
66669;SDS011;53568;52.164;4.472;2023-03-03T03:11:33;8.42;;;8.28;;
66669;SDS011;53568;52.164;4.472;2023-03-03T03:14:00;8.00;;;7.95;;
66669;SDS011;53568;52.164;4.472;2023-03-03T03:16:30;8.19;;;8.18;;
66669;SDS011;53568;52.164;4.472;2023-03-03T03:18:56;7.43;;;7.36;;
66669;SDS011;53568;52.164;4.472;2023-03-03T03:21:23;8.15;;;8.06;;
66669;SDS011;53568;52.164;4.472;2023-03-03T03:23:48;7.52;;;7.48;;
66669;SDS011;53568;52.164;4.472;2023-03-03T03:26:14;7.50;;;7.43;;
66669;SDS011;53568;52.164;4.472;2023-03-03T03:28:39;7.54;;;7.40;;
66669;SDS011;53568;52.164;4.472;2023-03-03T03:31:05;7.37;;;7.28;;
66669;SDS011;53568;52.164;4.472;2023-03-03T03:33:32;6.59;;;6.54;;
66669;SDS011;53568;52.164;4.472;2023-03-03T03:35:58;6.87;;;6.82;;
66669;SDS011;53568;52.164;4.472;2023-03-03T03:38:24;6.78;;;6.74;;
66669;SDS011;53568;52.164;4.472;2023-03-03T03:40:51;6.71;;;6.70;;
66669;SDS011;53568;52.164;4.472;2023-03-03T03:43:17;6.37;;;6.35;;
66669;SDS011;53568;52.164;4.472;2023-03-03T03:45:43;6.52;;;6.51;;
66669;SDS011;53568;52.164;4.472;2023-03-03T03:48:09;6.07;;;6.04;;
66669;SDS011;53568;52.164;4.472;2023-03-03T03:50:35;6.28;;;6.25;;
66669;SDS011;53568;52.164;4.472;2023-03-03T03:53:02;6.12;;;6.10;;
66669;SDS011;53568;52.164;4.472;2023-03-03T03:55:27;6.05;;;6.00;;
66669;SDS011;53568;52.164;4.472;2023-03-03T03:57:54;5.59;;;5.55;;
66669;SDS011;53568;52.164;4.472;2023-03-03T04:00:21;5.53;;;5.50;;
66669;SDS011;53568;52.164;4.472;2023-03-03T04:02:47;5.47;;;5.43;;
66669;SDS011;53568;52.164;4.472;2023-03-03T04:05:13;5.29;;;5.27;;
66669;SDS011;53568;52.164;4.472;2023-03-03T04:07:38;5.72;;;5.70;;
66669;SDS011;53568;52.164;4.472;2023-03-03T04:10:04;5.60;;;5.57;;
66669;SDS011;53568;52.164;4.472;2023-03-03T04:12:30;5.46;;;5.41;;
66669;SDS011;53568;52.164;4.472;2023-03-03T04:15:03;5.61;;;5.59;;
66669;SDS011;53568;52.164;4.472;2023-03-03T04:17:33;5.75;;;5.72;;
66669;SDS011;53568;52.164;4.472;2023-03-03T04:19:59;5.52;;;5.50;;
66669;SDS011;53568;52.164;4.472;2023-03-03T04:22:26;5.58;;;5.56;;
66669;SDS011;53568;52.164;4.472;2023-03-03T04:24:52;5.75;;;5.70;;
66669;SDS011;53568;52.164;4.472;2023-03-03T04:27:18;5.77;;;5.73;;
66669;SDS011;53568;52.164;4.472;2023-03-03T04:29:43;6.30;;;6.26;;
66669;SDS011;53568;52.164;4.472;2023-03-03T04:32:09;6.22;;;6.18;;
66669;SDS011;53568;52.164;4.472;2023-03-03T04:34:34;6.32;;;6.27;;
66669;SDS011;53568;52.164;4.472;2023-03-03T04:37:00;6.69;;;6.63;;
66669;SDS011;53568;52.164;4.472;2023-03-03T04:39:26;6.61;;;6.59;;
66669;SDS011;53568;52.164;4.472;2023-03-03T04:41:52;7.45;;;7.45;;
66669;SDS011;53568;52.164;4.472;2023-03-03T04:44:17;7.47;;;7.47;;
66669;SDS011;53568;52.164;4.472;2023-03-03T04:46:43;7.66;;;7.66;;
66669;SDS011;53568;52.164;4.472;2023-03-03T04:49:08;7.68;;;7.66;;
66669;SDS011;53568;52.164;4.472;2023-03-03T04:51:34;8.35;;;8.33;;
66669;SDS011;53568;52.164;4.472;2023-03-03T04:54:00;8.47;;;8.46;;
66669;SDS011;53568;52.164;4.472;2023-03-03T04:56:25;9.21;;;9.21;;
66669;SDS011;53568;52.164;4.472;2023-03-03T04:58:52;9.72;;;9.70;;
66669;SDS011;53568;52.164;4.472;2023-03-03T05:01:18;11.07;;;10.98;;
66669;SDS011;53568;52.164;4.472;2023-03-03T05:03:43;11.08;;;10.95;;
66669;SDS011;53568;52.164;4.472;2023-03-03T05:06:09;11.90;;;11.77;;
66669;SDS011;53568;52.164;4.472;2023-03-03T05:08:34;11.73;;;11.66;;
66669;SDS011;53568;52.164;4.472;2023-03-03T05:11:00;12.31;;;12.25;;
66669;SDS011;53568;52.164;4.472;2023-03-03T05:13:26;13.09;;;12.93;;
66669;SDS011;53568;52.164;4.472;2023-03-03T05:15:53;11.97;;;11.91;;
66669;SDS011;53568;52.164;4.472;2023-03-03T05:18:21;12.87;;;12.75;;
66669;SDS011;53568;52.164;4.472;2023-03-03T05:20:50;13.23;;;13.07;;
66669;SDS011;53568;52.164;4.472;2023-03-03T05:23:16;13.39;;;13.24;;
66669;SDS011;53568;52.164;4.472;2023-03-03T05:25:43;13.19;;;13.02;;
66669;SDS011;53568;52.164;4.472;2023-03-03T05:28:10;12.44;;;12.35;;
66669;SDS011;53568;52.164;4.472;2023-03-03T05:30:36;12.83;;;12.76;;
66669;SDS011;53568;52.164;4.472;2023-03-03T05:33:03;13.25;;;13.17;;
66669;SDS011;53568;52.164;4.472;2023-03-03T05:35:29;13.80;;;13.71;;
66669;SDS011;53568;52.164;4.472;2023-03-03T05:37:55;14.35;;;14.27;;
66669;SDS011;53568;52.164;4.472;2023-03-03T05:40:24;15.12;;;15.04;;
66669;SDS011;53568;52.164;4.472;2023-03-03T05:42:50;14.83;;;14.70;;
66669;SDS011;53568;52.164;4.472;2023-03-03T05:45:16;14.70;;;14.66;;
66669;SDS011;53568;52.164;4.472;2023-03-03T05:47:45;13.96;;;13.89;;
66669;SDS011;53568;52.164;4.472;2023-03-03T05:50:12;14.80;;;14.63;;
66669;SDS011;53568;52.164;4.472;2023-03-03T05:52:39;15.03;;;14.81;;
66669;SDS011;53568;52.164;4.472;2023-03-03T05:55:05;14.63;;;14.52;;
66669;SDS011;53568;52.164;4.472;2023-03-03T05:57:31;14.49;;;14.42;;
66669;SDS011;53568;52.164;4.472;2023-03-03T05:59:56;14.88;;;14.87;;
66669;SDS011;53568;52.164;4.472;2023-03-03T06:02:22;15.18;;;15.16;;
66669;SDS011;53568;52.164;4.472;2023-03-03T06:04:47;14.22;;;14.19;;
66669;SDS011;53568;52.164;4.472;2023-03-03T06:07:13;14.72;;;14.66;;
66669;SDS011;53568;52.164;4.472;2023-03-03T06:09:38;14.59;;;14.49;;
66669;SDS011;53568;52.164;4.472;2023-03-03T06:12:04;15.98;;;15.83;;
66669;SDS011;53568;52.164;4.472;2023-03-03T06:14:30;16.19;;;15.98;;
66669;SDS011;53568;52.164;4.472;2023-03-03T06:16:56;16.22;;;16.06;;
66669;SDS011;53568;52.164;4.472;2023-03-03T06:19:22;15.79;;;15.71;;
66669;SDS011;53568;52.164;4.472;2023-03-03T06:21:48;16.14;;;16.02;;
66669;SDS011;53568;52.164;4.472;2023-03-03T06:24:13;15.14;;;15.02;;
66669;SDS011;53568;52.164;4.472;2023-03-03T06:26:39;15.35;;;15.20;;
66669;SDS011;53568;52.164;4.472;2023-03-03T06:29:05;15.14;;;15.05;;
66669;SDS011;53568;52.164;4.472;2023-03-03T06:31:31;15.29;;;15.27;;
66669;SDS011;53568;52.164;4.472;2023-03-03T06:33:56;15.06;;;15.06;;
66669;SDS011;53568;52.164;4.472;2023-03-03T06:36:22;14.63;;;14.62;;
66669;SDS011;53568;52.164;4.472;2023-03-03T06:38:49;14.44;;;14.44;;
66669;SDS011;53568;52.164;4.472;2023-03-03T06:41:15;14.76;;;14.73;;
66669;SDS011;53568;52.164;4.472;2023-03-03T06:43:40;14.35;;;14.29;;
66669;SDS011;53568;52.164;4.472;2023-03-03T06:46:06;14.92;;;14.77;;
66669;SDS011;53568;52.164;4.472;2023-03-03T06:48:32;15.81;;;15.70;;
66669;SDS011;53568;52.164;4.472;2023-03-03T06:50:59;15.68;;;15.59;;
66669;SDS011;53568;52.164;4.472;2023-03-03T06:53:27;15.62;;;15.52;;
66669;SDS011;53568;52.164;4.472;2023-03-03T06:55:57;14.53;;;14.43;;
66669;SDS011;53568;52.164;4.472;2023-03-03T06:58:24;13.85;;;13.76;;
66669;SDS011;53568;52.164;4.472;2023-03-03T07:00:57;13.29;;;13.22;;
66669;SDS011;53568;52.164;4.472;2023-03-03T07:03:25;13.03;;;12.90;;
66669;SDS011;53568;52.164;4.472;2023-03-03T07:06:00;13.60;;;13.59;;
66669;SDS011;53568;52.164;4.472;2023-03-03T07:08:32;13.77;;;13.70;;
66669;SDS011;53568;52.164;4.472;2023-03-03T07:11:00;14.19;;;14.12;;
66669;SDS011;53568;52.164;4.472;2023-03-03T07:13:35;13.96;;;13.94;;
66669;SDS011;53568;52.164;4.472;2023-03-03T07:16:10;13.56;;;13.53;;
66669;SDS011;53568;52.164;4.472;2023-03-03T07:24:09;13.14;;;13.05;;
66669;SDS011;53568;52.164;4.472;2023-03-03T07:26:50;13.79;;;13.74;;
66669;SDS011;53568;52.164;4.472;2023-03-03T07:29:25;13.31;;;13.30;;
66669;SDS011;53568;52.164;4.472;2023-03-03T07:31:55;13.45;;;13.41;;
66669;SDS011;53568;52.164;4.472;2023-03-03T07:34:24;13.26;;;13.12;;
66669;SDS011;53568;52.164;4.472;2023-03-03T07:37:36;13.77;;;13.52;;
66669;SDS011;53568;52.164;4.472;2023-03-03T07:42:58;12.82;;;12.77;;
66669;SDS011;53568;52.164;4.472;2023-03-03T07:45:29;13.06;;;12.98;;
66669;SDS011;53568;52.164;4.472;2023-03-03T07:48:04;12.82;;;12.70;;
66669;SDS011;53568;52.164;4.472;2023-03-03T07:50:38;12.83;;;12.65;;
66669;SDS011;53568;52.164;4.472;2023-03-03T07:53:11;13.44;;;13.30;;
66669;SDS011;53568;52.164;4.472;2023-03-03T07:55:46;13.52;;;13.44;;
66669;SDS011;53568;52.164;4.472;2023-03-03T08:03:07;14.03;;;13.95;;
66669;SDS011;53568;52.164;4.472;2023-03-03T08:05:41;14.78;;;14.59;;
66669;SDS011;53568;52.164;4.472;2023-03-03T08:08:13;14.49;;;14.31;;
66669;SDS011;53568;52.164;4.472;2023-03-03T08:11:03;14.52;;;14.39;;
66669;SDS011;53568;52.164;4.472;2023-03-03T08:16:03;16.15;;;15.90;;
66669;SDS011;53568;52.164;4.472;2023-03-03T08:18:50;16.24;;;16.07;;
66669;SDS011;53568;52.164;4.472;2023-03-03T08:21:19;16.58;;;16.36;;
66669;SDS011;53568;52.164;4.472;2023-03-03T08:23:46;14.88;;;14.79;;
66669;SDS011;53568;52.164;4.472;2023-03-03T08:26:15;14.24;;;14.13;;
66669;SDS011;53568;52.164;4.472;2023-03-03T08:28:43;14.39;;;14.27;;
66669;SDS011;53568;52.164;4.472;2023-03-03T08:31:08;13.40;;;13.24;;
66669;SDS011;53568;52.164;4.472;2023-03-03T08:33:34;14.67;;;14.42;;
66669;SDS011;53568;52.164;4.472;2023-03-03T08:35:59;14.99;;;14.77;;
66669;SDS011;53568;52.164;4.472;2023-03-03T08:38:25;14.99;;;14.89;;
66669;SDS011;53568;52.164;4.472;2023-03-03T08:40:51;15.12;;;14.93;;
66669;SDS011;53568;52.164;4.472;2023-03-03T08:43:17;14.86;;;14.75;;
66669;SDS011;53568;52.164;4.472;2023-03-03T08:45:49;15.36;;;15.20;;
66669;SDS011;53568;52.164;4.472;2023-03-03T08:48:17;15.39;;;15.29;;
66669;SDS011;53568;52.164;4.472;2023-03-03T08:50:44;15.84;;;15.59;;
66669;SDS011;53568;52.164;4.472;2023-03-03T08:53:11;16.69;;;16.38;;
66669;SDS011;53568;52.164;4.472;2023-03-03T08:55:38;17.55;;;17.29;;
66669;SDS011;53568;52.164;4.472;2023-03-03T08:58:04;19.23;;;18.98;;
66669;SDS011;53568;52.164;4.472;2023-03-03T09:00:30;21.91;;;21.40;;
66669;SDS011;53568;52.164;4.472;2023-03-03T09:02:56;22.01;;;21.54;;
66669;SDS011;53568;52.164;4.472;2023-03-03T09:05:22;22.16;;;21.85;;
66669;SDS011;53568;52.164;4.472;2023-03-03T09:07:48;22.96;;;22.55;;
66669;SDS011;53568;52.164;4.472;2023-03-03T09:10:17;23.35;;;22.78;;
66669;SDS011;53568;52.164;4.472;2023-03-03T09:12:51;22.28;;;21.84;;
66669;SDS011;53568;52.164;4.472;2023-03-03T09:15:22;23.36;;;22.92;;
66669;SDS011;53568;52.164;4.472;2023-03-03T09:17:58;24.32;;;23.73;;
66669;SDS011;53568;52.164;4.472;2023-03-03T09:20:52;25.95;;;25.30;;
66669;SDS011;53568;52.164;4.472;2023-03-03T09:31:50;25.70;;;24.92;;
66669;SDS011;53568;52.164;4.472;2023-03-03T09:37:01;25.01;;;24.27;;
66669;SDS011;53568;52.164;4.472;2023-03-03T09:39:47;24.55;;;23.77;;
66669;SDS011;53568;52.164;4.472;2023-03-03T09:56:41;14.70;;;14.69;;
66669;SDS011;53568;52.164;4.472;2023-03-03T09:59:25;14.79;;;14.62;;
66669;SDS011;53568;52.164;4.472;2023-03-03T10:02:23;14.04;;;13.97;;
66669;SDS011;53568;52.164;4.472;2023-03-03T10:21:35;12.03;;;11.99;;
66669;SDS011;53568;52.164;4.472;2023-03-03T10:29:34;11.45;;;11.38;;
66669;SDS011;53568;52.164;4.472;2023-03-03T10:38:19;9.40;;;9.40;;
66669;SDS011;53568;52.164;4.472;2023-03-03T10:44:07;8.24;;;8.20;;
66669;SDS011;53568;52.164;4.472;2023-03-03T10:54:41;5.67;;;5.67;;
66669;SDS011;53568;52.164;4.472;2023-03-03T11:00:40;5.42;;;5.42;;
66669;SDS011;53568;52.164;4.472;2023-03-03T11:03:25;5.90;;;5.90;;
66669;SDS011;53568;52.164;4.472;2023-03-03T11:06:09;5.88;;;5.88;;
66669;SDS011;53568;52.164;4.472;2023-03-03T11:11:59;5.35;;;5.34;;
66669;SDS011;53568;52.164;4.472;2023-03-03T11:25:44;4.87;;;4.87;;
66669;SDS011;53568;52.164;4.472;2023-03-03T11:31:20;5.72;;;5.72;;
66669;SDS011;53568;52.164;4.472;2023-03-03T11:37:20;5.33;;;5.33;;
66669;SDS011;53568;52.164;4.472;2023-03-03T11:39:54;4.65;;;4.65;;
66669;SDS011;53568;52.164;4.472;2023-03-03T11:42:35;3.43;;;3.43;;
66669;SDS011;53568;52.164;4.472;2023-03-03T11:45:20;3.91;;;3.91;;
66669;SDS011;53568;52.164;4.472;2023-03-03T11:53:37;2.22;;;2.22;;
66669;SDS011;53568;52.164;4.472;2023-03-03T11:56:29;2.18;;;2.18;;
66669;SDS011;53568;52.164;4.472;2023-03-03T11:59:19;2.16;;;2.16;;
66669;SDS011;53568;52.164;4.472;2023-03-03T12:05:15;2.29;;;2.29;;
66669;SDS011;53568;52.164;4.472;2023-03-03T12:20:45;2.11;;;2.11;;
66669;SDS011;53568;52.164;4.472;2023-03-03T12:23:45;1.76;;;1.76;;
66669;SDS011;53568;52.164;4.472;2023-03-03T12:29:36;1.76;;;1.76;;
66669;SDS011;53568;52.164;4.472;2023-03-03T12:34:50;1.67;;;1.67;;
66669;SDS011;53568;52.164;4.472;2023-03-03T12:37:47;1.94;;;1.94;;
66669;SDS011;53568;52.164;4.472;2023-03-03T12:40:23;2.20;;;2.19;;
66669;SDS011;53568;52.164;4.472;2023-03-03T12:46:06;2.16;;;2.16;;
66669;SDS011;53568;52.164;4.472;2023-03-03T12:48:53;2.21;;;2.21;;
66669;SDS011;53568;52.164;4.472;2023-03-03T12:59:19;2.09;;;2.09;;
66669;SDS011;53568;52.164;4.472;2023-03-03T13:07:31;2.29;;;2.29;;
66669;SDS011;53568;52.164;4.472;2023-03-03T13:15:22;1.72;;;1.72;;
66669;SDS011;53568;52.164;4.472;2023-03-03T13:20:59;1.52;;;1.52;;
66669;SDS011;53568;52.164;4.472;2023-03-03T13:28:55;2.25;;;2.25;;
66669;SDS011;53568;52.164;4.472;2023-03-03T13:31:32;2.19;;;2.18;;
66669;SDS011;53568;52.164;4.472;2023-03-03T13:36:59;2.78;;;2.78;;
66669;SDS011;53568;52.164;4.472;2023-03-03T13:39:33;2.70;;;2.70;;
66669;SDS011;53568;52.164;4.472;2023-03-03T13:42:55;2.94;;;2.94;;
66669;SDS011;53568;52.164;4.472;2023-03-03T13:44:55;2.59;;;2.59;;
66669;SDS011;53568;52.164;4.472;2023-03-03T13:52:47;3.08;;;3.08;;
66669;SDS011;53568;52.164;4.472;2023-03-03T13:58:30;2.84;;;2.84;;
66669;SDS011;53568;52.164;4.472;2023-03-03T14:06:37;2.61;;;2.61;;
66669;SDS011;53568;52.164;4.472;2023-03-03T14:12:06;2.20;;;2.20;;
66669;SDS011;53568;52.164;4.472;2023-03-03T14:14:56;1.74;;;1.74;;
66669;SDS011;53568;52.164;4.472;2023-03-03T14:20:40;1.36;;;1.36;;
66669;SDS011;53568;52.164;4.472;2023-03-03T14:23:18;1.50;;;1.47;;
66669;SDS011;53568;52.164;4.472;2023-03-03T14:25:58;1.45;;;1.39;;
66669;SDS011;53568;52.164;4.472;2023-03-03T14:28:42;1.35;;;1.27;;
66669;SDS011;53568;52.164;4.472;2023-03-03T14:33:57;1.93;;;1.80;;
66669;SDS011;53568;52.164;4.472;2023-03-03T14:36:35;1.36;;;1.31;;
66669;SDS011;53568;52.164;4.472;2023-03-03T14:42:28;1.66;;;1.55;;
66669;SDS011;53568;52.164;4.472;2023-03-03T14:45:01;1.89;;;1.82;;
66669;SDS011;53568;52.164;4.472;2023-03-03T14:47:44;1.73;;;1.68;;
66669;SDS011;53568;52.164;4.472;2023-03-03T14:50:34;1.88;;;1.81;;
66669;SDS011;53568;52.164;4.472;2023-03-03T14:53:04;1.90;;;1.87;;
66669;SDS011;53568;52.164;4.472;2023-03-03T14:55:55;2.19;;;2.17;;
66669;SDS011;53568;52.164;4.472;2023-03-03T14:58:41;2.95;;;2.95;;
66669;SDS011;53568;52.164;4.472;2023-03-03T15:01:12;3.58;;;3.58;;
66669;SDS011;53568;52.164;4.472;2023-03-03T15:03:47;4.40;;;4.40;;
66669;SDS011;53568;52.164;4.472;2023-03-03T15:06:32;5.70;;;5.70;;
66669;SDS011;53568;52.164;4.472;2023-03-03T15:09:33;6.25;;;6.25;;
66669;SDS011;53568;52.164;4.472;2023-03-03T15:14:52;4.71;;;4.71;;
66669;SDS011;53568;52.164;4.472;2023-03-03T15:31:00;1.61;;;1.52;;
66669;SDS011;53568;52.164;4.472;2023-03-03T15:45:07;1.79;;;1.52;;
66669;SDS011;53568;52.164;4.472;2023-03-03T16:01:45;2.47;;;1.91;;
66669;SDS011;53568;52.164;4.472;2023-03-03T16:04:27;2.98;;;2.38;;
66669;SDS011;53568;52.164;4.472;2023-03-03T16:09:52;2.17;;;1.71;;
66669;SDS011;53568;52.164;4.472;2023-03-03T16:12:40;2.18;;;1.67;;
66669;SDS011;53568;52.164;4.472;2023-03-03T16:24:37;3.49;;;2.46;;
66669;SDS011;53568;52.164;4.472;2023-03-03T16:27:18;3.45;;;2.42;;
66669;SDS011;53568;52.164;4.472;2023-03-03T16:29:57;3.33;;;2.36;;
66669;SDS011;53568;52.164;4.472;2023-03-03T16:35:18;3.84;;;2.81;;
66669;SDS011;53568;52.164;4.472;2023-03-03T16:37:55;3.38;;;2.45;;
66669;SDS011;53568;52.164;4.472;2023-03-03T16:45:57;3.66;;;2.65;;
66669;SDS011;53568;52.164;4.472;2023-03-03T16:48:36;3.73;;;2.76;;
66669;SDS011;53568;52.164;4.472;2023-03-03T16:53:49;3.95;;;2.93;;
66669;SDS011;53568;52.164;4.472;2023-03-03T16:56:46;4.28;;;3.18;;
66669;SDS011;53568;52.164;4.472;2023-03-03T16:59:49;5.02;;;3.77;;
66669;SDS011;53568;52.164;4.472;2023-03-03T17:10:39;6.16;;;4.11;;
66669;SDS011;53568;52.164;4.472;2023-03-03T17:21:58;6.96;;;4.71;;
66669;SDS011;53568;52.164;4.472;2023-03-03T17:27:33;6.95;;;4.76;;
66669;SDS011;53568;52.164;4.472;2023-03-03T17:30:16;7.64;;;5.10;;
66669;SDS011;53568;52.164;4.472;2023-03-03T17:36:00;8.42;;;5.46;;
66669;SDS011;53568;52.164;4.472;2023-03-03T17:47:26;8.25;;;5.15;;
66669;SDS011;53568;52.164;4.472;2023-03-03T17:49:38;8.36;;;5.30;;
66669;SDS011;53568;52.164;4.472;2023-03-03T17:52:21;8.83;;;5.52;;
66669;SDS011;53568;52.164;4.472;2023-03-03T18:00:23;9.23;;;5.66;;
66669;SDS011;53568;52.164;4.472;2023-03-03T18:08:45;8.33;;;5.22;;
66669;SDS011;53568;52.164;4.472;2023-03-03T18:26:02;9.18;;;5.88;;
66669;SDS011;53568;52.164;4.472;2023-03-03T18:28:48;8.58;;;5.56;;
66669;SDS011;53568;52.164;4.472;2023-03-03T18:31:25;9.12;;;5.86;;
66669;SDS011;53568;52.164;4.472;2023-03-03T18:36:52;8.37;;;5.65;;
66669;SDS011;53568;52.164;4.472;2023-03-03T18:44:39;9.37;;;6.12;;
66669;SDS011;53568;52.164;4.472;2023-03-03T18:47:06;9.18;;;6.07;;
66669;SDS011;53568;52.164;4.472;2023-03-03T18:52:20;9.55;;;6.39;;
66669;SDS011;53568;52.164;4.472;2023-03-03T18:55:03;8.29;;;5.75;;
66669;SDS011;53568;52.164;4.472;2023-03-03T19:00:41;8.92;;;6.10;;
66669;SDS011;53568;52.164;4.472;2023-03-03T19:03:31;9.07;;;5.93;;
66669;SDS011;53568;52.164;4.472;2023-03-03T19:09:01;9.06;;;5.73;;
66669;SDS011;53568;52.164;4.472;2023-03-03T19:11:48;9.87;;;6.31;;
66669;SDS011;53568;52.164;4.472;2023-03-03T19:16:54;10.17;;;6.54;;
66669;SDS011;53568;52.164;4.472;2023-03-03T19:19:22;8.38;;;5.57;;
66669;SDS011;53568;52.164;4.472;2023-03-03T19:22:27;8.67;;;5.69;;
66669;SDS011;53568;52.164;4.472;2023-03-03T19:30:10;10.19;;;6.44;;
66669;SDS011;53568;52.164;4.472;2023-03-03T19:41:14;9.66;;;5.99;;
66669;SDS011;53568;52.164;4.472;2023-03-03T19:43:55;10.33;;;6.48;;
66669;SDS011;53568;52.164;4.472;2023-03-03T19:52:01;10.85;;;6.81;;
66669;SDS011;53568;52.164;4.472;2023-03-03T19:57:04;10.23;;;6.89;;
66669;SDS011;53568;52.164;4.472;2023-03-03T19:59:47;10.36;;;6.90;;
66669;SDS011;53568;52.164;4.472;2023-03-03T20:02:27;8.93;;;6.13;;
66669;SDS011;53568;52.164;4.472;2023-03-03T20:05:19;9.32;;;6.26;;
66669;SDS011;53568;52.164;4.472;2023-03-03T20:13:26;9.38;;;6.26;;
66669;SDS011;53568;52.164;4.472;2023-03-03T20:21:22;9.40;;;6.22;;
66669;SDS011;53568;52.164;4.472;2023-03-03T20:23:58;9.11;;;6.10;;
66669;SDS011;53568;52.164;4.472;2023-03-03T20:26:48;9.91;;;6.46;;
66669;SDS011;53568;52.164;4.472;2023-03-03T20:32:03;10.30;;;6.68;;
66669;SDS011;53568;52.164;4.472;2023-03-03T20:37:12;11.72;;;7.52;;
66669;SDS011;53568;52.164;4.472;2023-03-03T20:48:15;9.31;;;6.16;;
66669;SDS011;53568;52.164;4.472;2023-03-03T20:51:04;9.82;;;6.47;;
66669;SDS011;53568;52.164;4.472;2023-03-03T20:56:44;10.67;;;6.84;;
66669;SDS011;53568;52.164;4.472;2023-03-03T21:05:24;10.54;;;6.62;;
66669;SDS011;53568;52.164;4.472;2023-03-03T21:08:05;10.74;;;6.62;;
66669;SDS011;53568;52.164;4.472;2023-03-03T21:10:35;11.17;;;6.88;;
66669;SDS011;53568;52.164;4.472;2023-03-03T21:16:26;10.44;;;6.48;;
66669;SDS011;53568;52.164;4.472;2023-03-03T21:18:59;10.30;;;6.38;;
66669;SDS011;53568;52.164;4.472;2023-03-03T21:21:36;10.11;;;6.15;;
66669;SDS011;53568;52.164;4.472;2023-03-03T21:24:12;10.83;;;6.60;;
66669;SDS011;53568;52.164;4.472;2023-03-03T21:26:50;10.79;;;6.66;;
66669;SDS011;53568;52.164;4.472;2023-03-03T21:29:17;10.21;;;6.39;;
66669;SDS011;53568;52.164;4.472;2023-03-03T21:31:57;10.86;;;6.83;;
66669;SDS011;53568;52.164;4.472;2023-03-03T21:37:03;9.66;;;6.20;;
66669;SDS011;53568;52.164;4.472;2023-03-03T21:39:35;10.12;;;6.43;;
66669;SDS011;53568;52.164;4.472;2023-03-03T21:42:06;9.34;;;6.07;;
66669;SDS011;53568;52.164;4.472;2023-03-03T21:44:41;9.51;;;6.19;;
66669;SDS011;53568;52.164;4.472;2023-03-03T21:47:10;9.43;;;6.02;;
66669;SDS011;53568;52.164;4.472;2023-03-03T21:49:41;9.52;;;6.09;;
66669;SDS011;53568;52.164;4.472;2023-03-03T21:52:09;10.15;;;6.48;;
66669;SDS011;53568;52.164;4.472;2023-03-03T21:54:37;9.86;;;6.29;;
66669;SDS011;53568;52.164;4.472;2023-03-03T21:57:03;8.88;;;5.70;;